Rechercher aéroport 
image banner adimage banner adimage banner ad
image banner ad

KMMH - Mammoth Yosemite

Situé à Mammoth Lakes, United States

ICAO - MMH, IATA - MMH

Données fournies par Airmate  

Information générale

Coordonnées: N37°37'27" W118°50'20"
Élévation : 7135 feet MSL.
Variation magnétique : 15° East
Voir autres Aéroports à California

Données opérationnelles

Special qualification required
Heure actuelle UTC:
Heure actuelle locale:
Météo
METAR: KMMH 290755Z AUTO 00000KT 10SM CLR 12/08 A3041 RMK AO2
TAF: KMMH 290520Z 2906/3006 27005KT P6SM SCT140 SCT200 FM291200 VRB05KT P6SM VCSH BKN100 BKN150 FM291800 13007KT P6SM VCTS BKN090CB BKN150 TEMPO 2919/2923 VRB15G30KT -TSRA BKN060CB FM300000 23009KT P6SM VCSH SCT040 BKN150
Voir NOTAMs / SUP AIP / TFR affectant cet aéroport [VIEW]
Fréquences de communication: [VIEW]

Pistes:

Identifiant RWYQFULongueur (ft)Largeur (ft)SurfaceLDA (ft)
09109°7000100ASPH7000
27289°7000100ASPH7000

Coordonnées de l'aéroport

Adresse: Mammoth Lakes United States

Vue satellite de KMMH